createdAt,value
2019-06-10T00:02:17.390Z,2.70
2019-06-10T00:04:50.839Z,2.93
2019-06-10T00:07:21.101Z,2.47
2019-06-10T00:09:51.146Z,2.77
2019-06-10T00:12:22.062Z,2.40
2019-06-10T00:14:51.835Z,2.63
2019-06-10T00:17:21.504Z,2.40
2019-06-10T00:19:51.271Z,2.30
2019-06-10T00:22:21.556Z,2.63
2019-06-10T00:24:52.177Z,2.83
2019-06-10T00:27:45.521Z,2.30
2019-06-10T00:30:06.504Z,2.33
2019-06-10T00:32:36.066Z,2.40
2019-06-10T00:35:06.510Z,2.10
2019-06-10T00:37:37.242Z,2.43
2019-06-10T00:40:08.955Z,2.50
2019-06-10T00:42:42.953Z,2.70
2019-06-10T00:45:17.958Z,2.60
2019-06-10T00:47:47.171Z,2.70
2019-06-10T00:50:16.694Z,2.63
2019-06-10T00:52:46.104Z,2.50
2019-06-10T00:55:15.646Z,2.40
2019-06-10T00:57:45.486Z,2.90
2019-06-10T01:00:25.174Z,2.10
2019-06-10T01:02:46.593Z,2.77
2019-06-10T01:05:16.022Z,2.30
2019-06-10T01:07:45.530Z,2.50
2019-06-10T01:10:15.722Z,2.60
2019-06-10T01:12:45.142Z,2.37
2019-06-10T01:15:15.502Z,2.60
2019-06-10T01:17:45.060Z,2.43
2019-06-10T01:20:16.050Z,2.43
2019-06-10T01:22:45.787Z,2.33
2019-06-10T01:25:15.237Z,3.17
2019-06-10T01:27:44.640Z,2.90
2019-06-10T01:30:20.584Z,2.30
2019-06-10T01:32:45.750Z,2.67
2019-06-10T01:35:15.822Z,2.60
2019-06-10T01:37:46.562Z,3.00
2019-06-10T01:40:17.868Z,2.70
2019-06-10T01:42:47.485Z,2.43
2019-06-10T01:45:17.324Z,2.40
2019-06-10T01:47:51.105Z,2.87
2019-06-10T01:50:21.899Z,3.10
2019-06-10T01:52:51.692Z,2.67
2019-06-10T01:55:21.870Z,2.80
2019-06-10T01:57:51.925Z,2.73
2019-06-10T02:00:26.164Z,2.57
2019-06-10T02:02:58.315Z,2.73
2019-06-10T02:05:27.744Z,2.80
2019-06-10T02:07:57.347Z,2.63
2019-06-10T02:10:26.784Z,2.40
2019-06-10T02:12:56.304Z,2.40
2019-06-10T02:15:26.105Z,2.60
2019-06-10T02:17:55.651Z,2.37
2019-06-10T02:20:25.381Z,2.50
2019-06-10T02:22:55.244Z,2.73
2019-06-10T02:25:24.871Z,2.67
2019-06-10T02:27:54.294Z,2.43
2019-06-10T02:30:44.270Z,3.20
2019-06-10T02:33:02.499Z,2.50
2019-06-10T02:35:44.162Z,2.47
2019-06-10T02:38:03.801Z,2.63
2019-06-10T02:40:36.625Z,2.80
2019-06-10T02:43:04.679Z,2.77
2019-06-10T02:45:37.615Z,2.63
2019-06-10T02:48:06.648Z,2.80
2019-06-10T02:51:03.851Z,2.57
2019-06-10T02:53:35.855Z,2.67
2019-06-10T02:56:04.815Z,2.90
2019-06-10T02:58:38.759Z,2.50
2019-06-10T03:03:54.275Z,2.57
2019-06-10T03:06:29.759Z,2.93
2019-06-10T03:08:55.168Z,2.80
2019-06-10T03:11:28.078Z,2.30
2019-06-10T03:13:58.164Z,2.50
2019-06-10T03:16:52.740Z,2.50
2019-06-10T03:19:42.134Z,2.37
2019-06-10T03:21:55.987Z,2.33
2019-06-10T03:24:25.678Z,2.30
2019-06-10T03:26:58.537Z,2.50
2019-06-10T03:29:36.123Z,2.30
2019-06-10T03:32:07.511Z,2.20
2019-06-10T03:34:46.017Z,2.27
2019-06-10T03:37:16.333Z,2.43
2019-06-10T03:39:45.209Z,2.20
2019-06-10T03:42:15.014Z,2.13
2019-06-10T03:44:44.783Z,2.50
2019-06-10T03:47:16.846Z,2.30
2019-06-10T03:49:52.535Z,2.60
2019-06-10T03:52:19.354Z,2.37
2019-06-10T03:54:49.102Z,2.83
2019-06-10T03:57:19.232Z,2.53
2019-06-10T03:59:49.066Z,3.00
2019-06-10T04:02:19.400Z,2.50
2019-06-10T04:05:03.958Z,2.87
2019-06-10T04:07:38.648Z,2.00
2019-06-10T04:10:09.149Z,2.50
2019-06-10T04:12:46.746Z,2.43
2019-06-10T04:15:19.682Z,2.40
2019-06-10T04:18:15.297Z,2.10
2019-06-10T04:20:45.211Z,2.50
2019-06-10T04:23:15.093Z,2.40
2019-06-10T04:25:45.433Z,2.80
2019-06-10T04:28:17.747Z,2.50
2019-06-10T04:30:49.770Z,2.30
2019-06-10T04:33:20.884Z,2.90
2019-06-10T04:35:51.991Z,2.93
2019-06-10T04:38:23.350Z,2.33
2019-06-10T04:40:54.204Z,2.23
2019-06-10T04:43:25.993Z,2.40
2019-06-10T04:45:55.394Z,2.53
2019-06-10T04:48:26.206Z,2.80
2019-06-10T04:50:57.382Z,2.57
2019-06-10T04:53:28.014Z,2.30
2019-06-10T04:55:58.335Z,2.87
2019-06-10T04:58:29.149Z,2.60
2019-06-10T05:00:59.268Z,2.67
2019-06-10T05:03:32.973Z,2.80
2019-06-10T05:06:03.246Z,2.53
2019-06-10T05:08:33.940Z,2.70
2019-06-10T05:11:04.642Z,2.47
2019-06-10T05:13:34.182Z,2.73
2019-06-10T05:16:03.963Z,2.23
2019-06-10T05:18:33.590Z,2.63
2019-06-10T05:21:03.247Z,2.60
2019-06-10T05:23:33.237Z,2.43
2019-06-10T05:26:03.141Z,2.37
2019-06-10T05:28:34.154Z,2.63
2019-06-10T05:31:03.978Z,2.13
2019-06-10T05:33:33.709Z,2.67
2019-06-10T05:36:03.294Z,2.83
2019-06-10T05:38:35.104Z,2.50
2019-06-10T05:41:04.005Z,2.67
2019-06-10T05:43:34.666Z,2.57
2019-06-10T05:46:07.287Z,2.60
2019-06-10T05:48:36.714Z,2.10
2019-06-10T05:51:07.101Z,2.20
2019-06-10T05:53:36.677Z,2.30
2019-06-10T05:56:07.822Z,2.50
2019-06-10T05:58:39.898Z,2.40
2019-06-10T06:01:09.436Z,2.70
2019-06-10T06:03:39.004Z,2.07
2019-06-10T06:06:14.890Z,3.30
2019-06-10T06:08:44.326Z,2.20
2019-06-10T06:11:15.629Z,2.40
2019-06-10T06:13:45.034Z,2.00
2019-06-10T06:16:14.486Z,2.80
2019-06-10T06:18:44.004Z,2.37
2019-06-10T06:21:25.310Z,2.30
2019-06-10T06:23:44.660Z,2.20
2019-06-10T06:26:16.957Z,2.17
2019-06-10T06:28:46.385Z,2.07
2019-06-10T06:31:15.838Z,2.43
2019-06-10T06:33:45.279Z,2.33
2019-06-10T06:36:14.777Z,1.73
2019-06-10T06:38:44.221Z,2.10
2019-06-10T06:41:15.133Z,1.97
2019-06-10T06:43:45.363Z,1.97
2019-06-10T06:46:17.133Z,1.80
2019-06-10T06:48:48.445Z,1.70
2019-06-10T06:51:35.466Z,2.20
2019-06-10T06:53:52.978Z,1.80
2019-06-10T06:56:23.099Z,1.90
2019-06-10T06:58:52.894Z,2.00
2019-06-10T07:01:25.959Z,1.90
2019-06-10T07:03:57.471Z,2.30
2019-06-10T07:06:27.455Z,1.80
2019-06-10T07:09:04.485Z,2.03
2019-06-10T07:11:33.974Z,2.27
2019-06-10T07:14:04.896Z,2.23
2019-06-10T07:16:36.142Z,2.07
2019-06-10T07:19:05.836Z,1.90
2019-06-10T07:21:56.934Z,2.10
2019-06-10T07:24:07.181Z,3.30
2019-06-10T07:26:42.110Z,1.70
2019-06-10T07:29:07.946Z,1.93
2019-06-10T07:31:39.694Z,2.13
2019-06-10T07:34:12.854Z,2.13
2019-06-10T07:36:44.023Z,1.93
2019-06-10T07:39:14.989Z,2.57
2019-06-10T07:41:47.943Z,2.17
2019-06-10T07:44:17.109Z,1.90
2019-06-10T07:46:47.031Z,1.90
2019-06-10T07:49:16.625Z,2.00
2019-06-10T07:51:46.971Z,1.80
2019-06-10T07:54:16.488Z,2.13
2019-06-10T07:56:50.434Z,2.00
2019-06-10T07:59:17.190Z,1.80
2019-06-10T08:01:51.496Z,2.10
2019-06-10T08:04:17.903Z,1.67
2019-06-10T08:06:49.890Z,1.90
2019-06-10T08:09:22.764Z,1.70
2019-06-10T08:11:53.350Z,1.70
2019-06-10T08:14:23.018Z,1.93
2019-06-10T08:16:53.292Z,1.90
2019-06-10T08:19:34.411Z,1.73
2019-06-10T08:21:54.826Z,1.53
2019-06-10T08:24:24.807Z,1.87
2019-06-10T08:26:54.539Z,1.40
2019-06-10T08:29:24.181Z,1.50
2019-06-10T08:31:54.085Z,1.50
2019-06-10T08:34:23.913Z,1.70
2019-06-10T08:36:54.289Z,1.80
2019-06-10T08:39:24.298Z,1.93
2019-06-10T08:41:53.960Z,1.43
2019-06-10T08:44:23.371Z,1.50
2019-06-10T08:46:53.130Z,1.37
2019-06-10T08:49:23.879Z,1.40
2019-06-10T08:51:54.111Z,1.20
2019-06-10T08:54:24.355Z,1.67
2019-06-10T08:57:04.918Z,1.60
2019-06-10T08:59:34.374Z,1.53
2019-06-10T09:02:03.918Z,1.50
2019-06-10T09:04:33.432Z,1.30
2019-06-10T09:07:04.310Z,1.30
2019-06-10T09:09:35.024Z,1.43
2019-06-10T09:12:04.723Z,1.60
2019-06-10T09:14:34.255Z,1.60
2019-06-10T09:17:03.691Z,1.47
2019-06-10T09:19:33.354Z,1.40
2019-06-10T09:22:03.896Z,1.17
2019-06-10T09:24:33.582Z,1.60
2019-06-10T09:27:03.131Z,1.23
2019-06-10T09:29:34.465Z,1.60
2019-06-10T09:32:03.920Z,1.53
2019-06-10T09:34:33.527Z,1.77
2019-06-10T09:37:04.066Z,2.00
2019-06-10T09:39:36.202Z,2.00
2019-06-10T09:42:06.749Z,1.40
2019-06-10T09:44:37.141Z,2.17
2019-06-10T09:47:06.862Z,1.67
2019-06-10T09:49:38.286Z,1.70
2019-06-10T09:52:08.075Z,1.40
2019-06-10T09:54:38.652Z,2.00
2019-06-10T09:57:08.369Z,1.40
2019-06-10T09:59:37.842Z,2.20
2019-06-10T10:02:08.486Z,1.70
2019-06-10T10:04:44.219Z,1.87
2019-06-10T10:07:13.918Z,1.40
2019-06-10T10:09:47.026Z,1.70
2019-06-10T10:12:15.448Z,1.67
2019-06-10T10:14:48.124Z,1.50
2019-06-10T10:17:16.423Z,1.40
2019-06-10T10:19:48.658Z,2.13
2019-06-10T10:22:17.550Z,1.47
2019-06-10T10:24:47.550Z,1.93
2019-06-10T10:27:17.195Z,1.70
2019-06-10T10:29:48.852Z,1.63
2019-06-10T10:32:18.155Z,1.70
2019-06-10T10:34:48.711Z,1.43
2019-06-10T10:37:19.642Z,1.63
2019-06-10T10:39:49.143Z,1.77
2019-06-10T10:42:18.733Z,1.60
2019-06-10T10:44:51.010Z,1.40
2019-06-10T10:47:37.987Z,1.77
2019-06-10T10:50:08.018Z,1.50
2019-06-10T10:52:38.898Z,1.43
2019-06-10T10:55:13.079Z,1.63
2019-06-10T10:57:41.362Z,1.80
2019-06-10T11:00:15.026Z,1.40
2019-06-10T11:02:46.690Z,1.67
2019-06-10T11:05:33.338Z,1.40
2019-06-10T11:08:04.323Z,1.43
2019-06-10T11:10:34.122Z,1.87
2019-06-10T11:13:07.132Z,1.60
2019-06-10T11:15:36.890Z,1.80
2019-06-10T11:18:09.049Z,1.63
2019-06-10T11:20:38.503Z,1.70
2019-06-10T11:23:08.016Z,1.47
2019-06-10T11:25:37.617Z,1.90
2019-06-10T11:28:07.477Z,1.70
2019-06-10T11:30:37.070Z,1.73
2019-06-10T11:33:06.693Z,1.50
2019-06-10T11:35:36.312Z,1.73
2019-06-10T11:38:05.862Z,1.40
2019-06-10T11:40:35.291Z,1.40
2019-06-10T11:43:04.917Z,1.50
2019-06-10T11:45:34.383Z,1.67
2019-06-10T11:48:04.197Z,1.30
2019-06-10T11:50:34.091Z,1.37
2019-06-10T11:53:06.121Z,1.60
2019-06-10T11:55:39.132Z,1.67
2019-06-10T11:58:09.049Z,1.50
2019-06-10T12:00:39.216Z,1.60
2019-06-10T12:03:09.264Z,1.60
2019-06-10T12:05:41.740Z,1.50
2019-06-10T12:08:13.162Z,1.47
2019-06-10T12:10:43.439Z,1.40
2019-06-10T12:13:22.465Z,1.70
2019-06-10T12:16:49.427Z,1.50
2019-06-10T12:18:23.122Z,1.67
2019-06-10T12:20:58.970Z,1.97
2019-06-10T12:23:24.333Z,1.60
2019-06-10T12:25:59.276Z,1.47
2019-06-10T12:28:28.519Z,1.53
2019-06-10T12:31:01.551Z,1.60
2019-06-10T12:33:29.960Z,1.57
2019-06-10T12:36:06.543Z,1.57
2019-06-10T12:38:33.880Z,1.47
2019-06-10T12:41:08.968Z,1.10
2019-06-10T12:43:35.074Z,1.40
2019-06-10T12:46:04.733Z,1.77
2019-06-10T12:48:34.581Z,1.30
2019-06-10T12:51:19.512Z,1.80
2019-06-10T12:53:49.311Z,1.50
2019-06-10T12:56:22.793Z,1.60
2019-06-10T12:58:58.071Z,1.30
2019-06-10T13:01:33.611Z,1.50
2019-06-10T13:04:08.041Z,1.77
2019-06-10T13:07:00.364Z,1.50
2019-06-10T13:09:46.916Z,1.40
2019-06-10T13:12:18.296Z,1.67
2019-06-10T13:14:57.817Z,1.60
2019-06-10T13:17:34.028Z,1.70
2019-06-10T13:20:08.295Z,1.40
2019-06-10T13:23:35.290Z,1.60
2019-06-10T13:25:54.548Z,1.40
2019-06-10T13:28:35.572Z,1.40
2019-06-10T13:31:11.828Z,1.50
2019-06-10T13:33:42.874Z,1.50
2019-06-10T13:36:17.394Z,1.90
2019-06-10T13:38:53.234Z,1.63
2019-06-10T13:41:24.775Z,1.60
2019-06-10T13:44:26.326Z,1.37
2019-06-10T13:46:55.593Z,1.50
2019-06-10T13:49:25.567Z,1.30
2019-06-10T13:51:56.528Z,1.40
2019-06-10T13:54:28.097Z,1.47
2019-06-10T13:56:59.100Z,1.30
2019-06-10T13:59:30.360Z,1.40
2019-06-10T14:02:10.245Z,1.63
2019-06-10T14:04:42.450Z,1.40
2019-06-10T14:07:18.902Z,1.63
2019-06-10T14:09:50.038Z,1.30
2019-06-10T14:12:23.662Z,1.37
2019-06-10T14:14:53.384Z,1.60
2019-06-10T14:17:46.361Z,1.40
2019-06-10T14:20:26.740Z,1.47
2019-06-10T14:22:59.535Z,1.40
2019-06-10T14:25:34.684Z,1.40
2019-06-10T14:28:19.687Z,1.40
2019-06-10T14:30:53.406Z,1.50
2019-06-10T14:33:23.231Z,1.77
2019-06-10T14:35:53.698Z,1.43
2019-06-10T14:38:27.947Z,1.23
2019-06-10T14:41:04.872Z,1.40
2019-06-10T14:43:34.168Z,1.73
2019-06-10T14:46:07.252Z,1.43
2019-06-10T14:48:37.972Z,1.67
2019-06-10T14:51:09.394Z,1.57
2019-06-10T14:53:42.861Z,1.50
2019-06-10T14:56:18.949Z,1.67
2019-06-10T14:58:47.132Z,1.50
2019-06-10T15:01:26.142Z,1.50
2019-06-10T15:03:58.066Z,2.03
2019-06-10T15:06:27.790Z,1.37
2019-06-10T15:09:02.033Z,1.33
2019-06-10T15:11:32.608Z,1.43
2019-06-10T15:14:03.593Z,1.40
2019-06-10T15:16:35.901Z,1.23
2019-06-10T15:19:15.847Z,1.60
2019-06-10T15:21:39.999Z,1.23
2019-06-10T15:24:09.947Z,1.50
2019-06-10T15:26:42.351Z,1.57
2019-06-10T15:29:17.086Z,1.60
2019-06-10T15:32:09.151Z,1.33
2019-06-10T15:34:26.419Z,1.40
2019-06-10T15:36:55.961Z,1.70
2019-06-10T15:39:25.412Z,1.33
2019-06-10T15:41:58.110Z,1.90
2019-06-10T15:44:47.622Z,1.43
2019-06-10T15:47:04.750Z,1.83
2019-06-10T15:49:34.147Z,1.43
2019-06-10T15:52:06.248Z,1.57
2019-06-10T15:54:42.510Z,1.60
2019-06-10T15:57:39.489Z,1.60
2019-06-10T16:00:02.902Z,1.60
2019-06-10T16:02:33.466Z,1.87
2019-06-10T16:05:06.060Z,1.57
2019-06-10T16:07:38.759Z,1.73
2019-06-10T16:10:12.817Z,1.50
2019-06-10T16:12:43.769Z,1.97
2019-06-10T16:15:16.141Z,1.80
2019-06-10T16:17:47.787Z,1.63
2019-06-10T16:20:17.830Z,1.50
2019-06-10T16:22:47.806Z,1.37
2019-06-10T16:25:17.763Z,1.37
2019-06-10T16:27:51.118Z,1.30
2019-06-10T16:30:18.631Z,1.50
2019-06-10T16:32:48.067Z,1.50
2019-06-10T16:35:20.812Z,1.40
2019-06-10T16:38:38.584Z,1.80
2019-06-10T16:41:32.261Z,1.63
2019-06-10T16:44:13.619Z,1.93
2019-06-10T16:46:46.833Z,1.67
2019-06-10T16:49:53.765Z,1.27
2019-06-10T16:52:26.105Z,1.67
2019-06-10T16:54:57.861Z,1.40
2019-06-10T16:57:27.786Z,1.57
2019-06-10T17:00:07.025Z,1.97
2019-06-10T17:02:33.170Z,1.27
2019-06-10T17:05:06.729Z,1.33
2019-06-10T17:07:36.556Z,1.17
2019-06-10T17:10:09.482Z,1.33
2019-06-10T17:12:38.975Z,1.67
2019-06-10T17:15:13.049Z,1.57
2019-06-10T17:17:42.455Z,1.40
2019-06-10T17:20:13.097Z,1.80
2019-06-10T17:22:43.440Z,1.60
2019-06-10T17:25:15.659Z,1.67
2019-06-10T17:27:45.285Z,1.23
2019-06-10T17:30:15.152Z,1.83
2019-06-10T17:32:44.596Z,1.60
2019-06-10T17:35:14.368Z,1.27
2019-06-10T17:37:43.820Z,1.50
2019-06-10T17:40:14.014Z,1.67
2019-06-10T17:42:43.417Z,1.40
2019-06-10T17:45:14.745Z,1.37
2019-06-10T17:47:44.534Z,1.50
2019-06-10T17:50:16.430Z,1.40
2019-06-10T17:52:45.820Z,1.50
2019-06-10T17:55:15.513Z,1.60
2019-06-10T17:57:47.481Z,1.33
2019-06-10T18:00:16.793Z,1.50
2019-06-10T18:02:46.859Z,1.80
2019-06-10T18:05:16.287Z,1.30
2019-06-10T18:07:47.063Z,1.67
2019-06-10T18:10:16.702Z,1.60
2019-06-10T18:12:46.113Z,1.30
2019-06-10T18:15:16.903Z,1.40
2019-06-10T18:17:46.334Z,1.60
2019-06-10T18:20:16.345Z,1.63
2019-06-10T18:22:45.822Z,1.57
2019-06-10T18:25:16.848Z,1.40
2019-06-10T18:27:46.264Z,1.47
2019-06-10T18:30:15.965Z,1.30
2019-06-10T18:32:45.448Z,1.40
2019-06-10T18:35:15.446Z,1.43
2019-06-10T18:37:44.839Z,1.50
2019-06-10T18:40:17.989Z,1.60
2019-06-10T18:42:47.464Z,1.90
2019-06-10T18:45:22.433Z,1.50
2019-06-10T18:47:53.309Z,2.53
2019-06-10T18:50:25.985Z,1.70
2019-06-10T18:52:57.396Z,1.70
2019-06-10T18:55:29.077Z,1.40
2019-06-10T19:00:22.732Z,1.30
2019-06-10T19:03:13.034Z,1.40
2019-06-10T19:05:36.665Z,1.50
2019-06-10T19:08:07.117Z,1.33
2019-06-10T19:10:37.471Z,1.50
2019-06-10T19:13:08.155Z,1.93
2019-06-10T19:15:37.845Z,1.33
2019-06-10T19:18:13.137Z,2.00
2019-06-10T19:20:45.094Z,1.40
2019-06-10T19:23:14.472Z,1.60
2019-06-10T19:25:44.412Z,2.00
2019-06-10T19:28:14.529Z,1.90
2019-06-10T19:30:44.853Z,1.70
2019-06-10T19:33:14.323Z,1.97
2019-06-10T19:35:43.875Z,1.50
2019-06-10T19:38:13.292Z,1.60
2019-06-10T19:40:44.117Z,1.60
2019-06-10T19:43:13.609Z,2.07
2019-06-10T19:45:44.000Z,1.50
2019-06-10T19:48:13.439Z,1.77
2019-06-10T19:50:48.090Z,1.60
2019-06-10T19:53:14.293Z,2.30
2019-06-10T19:55:44.466Z,1.87
2019-06-10T19:58:14.934Z,2.10
2019-06-10T20:00:50.772Z,1.90
2019-06-10T20:03:16.887Z,1.83
2019-06-10T20:05:47.096Z,1.63
2019-06-10T20:08:16.698Z,2.00
2019-06-10T20:10:46.071Z,1.90
2019-06-10T20:13:15.504Z,1.70
2019-06-10T20:15:46.688Z,2.00
2019-06-10T20:18:16.070Z,2.03
2019-06-10T20:20:47.132Z,2.37
2019-06-10T20:23:18.621Z,1.80
2019-06-10T20:25:48.847Z,1.97
2019-06-10T20:28:18.290Z,2.20
2019-06-10T20:30:49.109Z,2.00
2019-06-10T20:33:33.868Z,1.97
2019-06-10T20:36:03.501Z,2.03
2019-06-10T20:38:32.996Z,1.87
2019-06-10T20:41:02.838Z,1.77
2019-06-10T20:43:32.855Z,2.30
2019-06-10T20:46:05.605Z,2.10
2019-06-10T20:48:33.615Z,2.27
2019-06-10T20:51:03.387Z,1.93
2019-06-10T20:53:33.826Z,2.10
2019-06-10T20:56:04.149Z,2.20
2019-06-10T20:58:33.510Z,2.70
2019-06-10T21:01:04.873Z,2.30
2019-06-10T21:03:34.489Z,2.20
2019-06-10T21:06:04.992Z,2.40
2019-06-10T21:08:35.038Z,2.10
2019-06-10T21:11:04.456Z,2.13
2019-06-10T21:13:33.842Z,1.97
2019-06-10T21:16:03.966Z,2.40
2019-06-10T21:18:33.753Z,2.17
2019-06-10T21:21:03.194Z,2.20
2019-06-10T21:23:32.583Z,2.40
2019-06-10T21:26:02.906Z,2.17
2019-06-10T21:28:32.879Z,2.57
2019-06-10T21:31:02.960Z,2.30
2019-06-10T21:33:33.455Z,2.40
2019-06-10T21:36:03.955Z,2.50
2019-06-10T21:38:33.585Z,2.40
2019-06-10T21:41:03.478Z,2.33
2019-06-10T21:43:33.322Z,2.20
2019-06-10T21:46:03.693Z,2.63
2019-06-10T21:48:33.494Z,2.03
2019-06-10T21:51:02.903Z,2.50
2019-06-10T21:53:32.272Z,2.50
2019-06-10T21:56:01.772Z,2.73
2019-06-10T21:58:32.782Z,2.30
2019-06-10T22:01:12.624Z,2.53
2019-06-10T22:03:35.394Z,2.17
2019-06-10T22:06:04.818Z,2.80
2019-06-10T22:08:46.062Z,2.70
2019-06-10T22:11:15.390Z,2.60
2019-06-10T22:13:46.102Z,3.03
2019-06-10T22:16:15.870Z,2.77
2019-06-10T22:18:46.554Z,2.63
2019-06-10T22:21:15.955Z,2.60
2019-06-10T22:23:48.792Z,2.93
2019-06-10T22:26:18.121Z,2.50
2019-06-10T22:28:47.956Z,2.40
2019-06-10T22:31:23.034Z,2.40
2019-06-10T22:33:49.534Z,2.70
2019-06-10T22:36:18.898Z,2.40
2019-06-10T22:38:48.361Z,2.50
2019-06-10T22:41:17.757Z,2.70
2019-06-10T22:43:47.211Z,2.50
2019-06-10T22:46:16.743Z,2.67
2019-06-10T22:48:46.865Z,2.80
2019-06-10T22:51:16.299Z,2.77
2019-06-10T22:53:46.129Z,2.73
2019-06-10T22:56:15.531Z,2.50
2019-06-10T22:58:44.897Z,2.77
2019-06-10T23:01:14.403Z,2.50
2019-06-10T23:03:44.867Z,2.70
2019-06-10T23:06:14.262Z,2.87
2019-06-10T23:08:43.838Z,2.63
2019-06-10T23:11:13.239Z,2.60
2019-06-10T23:13:42.618Z,2.57
2019-06-10T23:16:12.982Z,3.20
2019-06-10T23:18:42.598Z,2.90
2019-06-10T23:21:13.437Z,3.00
2019-06-10T23:23:43.181Z,3.00
2019-06-10T23:26:13.123Z,2.87
2019-06-10T23:28:42.962Z,3.03
2019-06-10T23:31:12.863Z,3.03
2019-06-10T23:33:42.663Z,2.70
2019-06-10T23:36:13.061Z,3.07
2019-06-10T23:38:43.219Z,3.10
2019-06-10T23:41:13.050Z,2.60
2019-06-10T23:43:42.489Z,3.17
2019-06-10T23:46:12.210Z,2.97
2019-06-10T23:48:42.382Z,3.27
2019-06-10T23:51:12.241Z,3.40
2019-06-10T23:53:42.125Z,2.77
2019-06-10T23:56:12.798Z,3.03
2019-06-10T23:58:43.311Z,3.17
